createdAt,value
2019-04-14T00:01:30.858Z,41.02
2019-04-14T00:04:00.979Z,39.78
2019-04-14T00:06:30.618Z,40.65
2019-04-14T00:08:59.318Z,38.85
2019-04-14T00:11:28.061Z,41.65
2019-04-14T00:13:56.747Z,41.90
2019-04-14T00:16:25.213Z,43.00
2019-04-14T00:18:54.045Z,40.30
2019-04-14T00:21:22.558Z,39.30
2019-04-14T00:23:52.450Z,40.80
2019-04-14T00:26:27.109Z,41.90
2019-04-14T00:28:57.773Z,39.75
2019-04-14T00:31:28.410Z,41.02
2019-04-14T00:33:59.106Z,40.08
2019-04-14T00:36:30.419Z,39.53
2019-04-14T00:38:59.074Z,38.67
2019-04-14T00:41:43.907Z,42.20
2019-04-14T00:44:16.763Z,40.25
2019-04-14T00:46:53.854Z,41.30
2019-04-14T00:49:22.451Z,39.73
2019-04-14T00:51:51.018Z,42.27
2019-04-14T00:54:19.658Z,43.75
2019-04-14T00:56:48.330Z,43.52
2019-04-14T00:59:17.900Z,40.52
2019-04-14T01:01:46.502Z,41.58
2019-04-14T01:04:14.945Z,42.85
2019-04-14T01:06:44.716Z,39.55
2019-04-14T01:09:15.129Z,46.80
2019-04-14T01:11:44.349Z,43.08
2019-04-14T01:14:12.894Z,43.38
2019-04-14T01:16:41.458Z,44.13
2019-04-14T01:19:11.194Z,42.08
2019-04-14T01:21:39.874Z,44.53
2019-04-14T01:24:09.565Z,40.60
2019-04-14T01:26:38.151Z,40.75
2019-04-14T01:29:07.904Z,46.25
2019-04-14T01:31:36.629Z,45.08
2019-04-14T01:34:06.231Z,44.95
2019-04-14T01:36:36.680Z,47.80
2019-04-14T01:39:06.984Z,44.88
2019-04-14T01:41:36.707Z,35.33
2019-04-14T01:44:06.557Z,43.30
2019-04-14T01:46:35.847Z,45.92
2019-04-14T01:49:05.562Z,43.73
2019-04-14T01:51:41.734Z,45.67
2019-04-14T01:54:14.949Z,46.08
2019-04-14T01:56:58.054Z,44.48
2019-04-14T01:59:26.802Z,44.95
2019-04-14T02:01:58.940Z,45.45
2019-04-14T02:04:27.435Z,44.65
2019-04-14T02:06:55.885Z,45.15
2019-04-14T02:09:25.141Z,45.55
2019-04-14T02:11:53.750Z,47.05
2019-04-14T02:14:23.270Z,46.15
2019-04-14T02:16:56.112Z,44.93
2019-04-14T02:19:22.135Z,44.50
2019-04-14T02:21:51.907Z,46.28
2019-04-14T02:24:20.525Z,45.23
2019-04-14T02:26:50.188Z,43.15
2019-04-14T02:29:19.049Z,47.43
2019-04-14T02:32:17.898Z,47.35
2019-04-14T02:35:00.258Z,47.73
2019-04-14T02:37:31.855Z,48.35
2019-04-14T02:39:48.500Z,45.95
2019-04-14T02:44:46.030Z,45.85
2019-04-14T02:47:37.131Z,46.13
2019-04-14T02:49:53.964Z,47.62
2019-04-14T02:54:51.643Z,47.65
2019-04-14T02:57:17.474Z,48.87
2019-04-14T03:00:03.468Z,48.90
2019-04-14T03:04:49.162Z,44.33
2019-04-14T03:07:21.914Z,46.60
2019-04-14T03:12:16.782Z,45.83
2019-04-14T03:14:50.341Z,48.25
2019-04-14T03:22:38.931Z,45.05
2019-04-14T03:25:08.022Z,48.28
2019-04-14T03:28:12.521Z,47.70
2019-04-14T03:30:57.795Z,47.65
2019-04-14T03:38:20.559Z,48.73
2019-04-14T03:43:11.316Z,44.97
2019-04-14T03:48:42.795Z,45.92
2019-04-14T03:50:36.819Z,45.92
2019-04-14T03:53:15.864Z,47.10
2019-04-14T03:55:49.401Z,47.25
2019-04-14T03:58:14.329Z,47.08
2019-04-14T04:00:44.273Z,47.93
2019-04-14T04:03:13.059Z,45.95
2019-04-14T04:05:41.622Z,47.00
2019-04-14T04:08:11.398Z,45.12
2019-04-14T04:10:48.589Z,49.73
2019-04-14T04:13:17.304Z,46.60
2019-04-14T04:15:45.756Z,46.77
2019-04-14T04:18:24.422Z,48.75
2019-04-14T04:20:57.183Z,47.17
2019-04-14T04:23:27.366Z,50.40
2019-04-14T04:26:00.258Z,47.93
2019-04-14T04:28:47.163Z,48.25
2019-04-14T04:31:20.331Z,47.83
2019-04-14T04:34:07.625Z,42.60
2019-04-14T04:36:37.854Z,43.05
2019-04-14T04:39:12.753Z,42.90
2019-04-14T04:41:42.784Z,41.75
2019-04-14T04:44:11.618Z,41.90
2019-04-14T04:46:40.199Z,41.30
2019-04-14T04:49:15.097Z,41.92
2019-04-14T04:51:39.933Z,42.40
2019-04-14T04:54:08.698Z,42.40
2019-04-14T04:56:38.153Z,41.00
2019-04-14T04:59:07.548Z,42.08
2019-04-14T05:01:36.496Z,43.75
2019-04-14T05:04:05.222Z,50.38
2019-04-14T05:07:01.584Z,46.37
2019-04-14T05:09:39.093Z,45.63
2019-04-14T05:12:26.255Z,47.38
2019-04-14T05:15:03.579Z,48.92
2019-04-14T05:17:34.373Z,49.33
2019-04-14T05:20:03.402Z,37.13
2019-04-14T05:22:33.172Z,50.83
2019-04-14T05:25:02.062Z,49.83
2019-04-14T05:27:30.510Z,51.85
2019-04-14T05:30:00.319Z,53.00
2019-04-14T05:32:30.419Z,50.90
2019-04-14T05:34:59.229Z,52.85
2019-04-14T05:37:27.682Z,50.98
2019-04-14T05:39:56.961Z,52.40
2019-04-14T05:42:27.101Z,51.73
2019-04-14T05:44:55.863Z,51.37
2019-04-14T05:47:24.334Z,53.08
2019-04-14T05:49:55.003Z,53.35
2019-04-14T05:52:23.096Z,53.40
2019-04-14T05:54:51.560Z,50.05
2019-04-14T05:57:20.078Z,51.58
2019-04-14T05:59:48.605Z,54.40
2019-04-14T06:02:18.043Z,53.40
2019-04-14T06:04:46.789Z,55.60
2019-04-14T06:07:15.317Z,51.05
2019-04-14T06:09:43.766Z,54.63
2019-04-14T06:12:13.919Z,54.13
2019-04-14T06:14:42.364Z,51.95
2019-04-14T06:17:10.966Z,55.23
2019-04-14T06:19:40.723Z,55.90
2019-04-14T06:22:09.410Z,55.60
2019-04-14T06:24:37.922Z,53.50
2019-04-14T06:27:06.379Z,54.75
2019-04-14T06:29:34.837Z,52.45
2019-04-14T06:32:04.940Z,53.70
2019-04-14T06:34:47.230Z,54.73
2019-04-14T06:37:32.452Z,51.85
2019-04-14T06:40:02.527Z,54.70
2019-04-14T06:42:31.078Z,52.73
2019-04-14T06:44:59.516Z,51.65
2019-04-14T06:47:27.974Z,52.53
2019-04-14T06:49:56.520Z,51.00
2019-04-14T06:52:25.037Z,54.53
2019-04-14T06:54:53.490Z,55.60
2019-04-14T06:57:21.965Z,51.58
2019-04-14T06:59:50.437Z,52.58
2019-04-14T07:02:19.000Z,52.93
2019-04-14T07:04:47.520Z,54.95
2019-04-14T07:07:16.268Z,51.15
2019-04-14T07:09:44.732Z,53.05
2019-04-14T07:12:13.363Z,53.28
2019-04-14T07:14:41.920Z,54.40
2019-04-14T07:17:10.399Z,56.00
2019-04-14T07:19:39.023Z,53.30
2019-04-14T07:22:07.544Z,55.83
2019-04-14T07:24:36.091Z,51.70
2019-04-14T07:27:04.842Z,52.08
2019-04-14T07:29:37.947Z,52.50
2019-04-14T07:32:08.105Z,52.83
2019-04-14T07:34:43.709Z,51.13
2019-04-14T07:37:19.768Z,53.45
2019-04-14T07:39:55.730Z,50.75
2019-04-14T07:42:37.714Z,48.68
2019-04-14T07:45:11.015Z,47.43
2019-04-14T07:47:50.362Z,50.65
2019-04-14T07:50:37.142Z,49.75
2019-04-14T07:53:22.141Z,47.13
2019-04-14T07:55:55.363Z,47.98
2019-04-14T07:58:40.889Z,47.53
2019-04-14T08:01:10.971Z,49.53
2019-04-14T08:03:57.245Z,45.88
2019-04-14T08:06:25.722Z,48.48
2019-04-14T08:08:54.225Z,44.40
2019-04-14T08:11:22.662Z,46.50
2019-04-14T08:13:51.129Z,44.23
2019-04-14T08:16:19.623Z,46.90
2019-04-14T08:18:48.127Z,46.18
2019-04-14T08:21:16.681Z,46.73
2019-04-14T08:23:45.189Z,46.88
2019-04-14T08:26:13.676Z,44.65
2019-04-14T08:28:42.189Z,45.83
2019-04-14T08:31:10.718Z,45.80
2019-04-14T08:33:39.236Z,46.50
2019-04-14T08:36:07.722Z,45.88
2019-04-14T08:38:36.180Z,45.38
2019-04-14T08:41:04.836Z,43.83
2019-04-14T08:43:51.403Z,42.70
2019-04-14T08:46:24.349Z,44.70
2019-04-14T08:48:57.639Z,41.10
2019-04-14T08:51:44.057Z,43.28
2019-04-14T08:54:14.230Z,42.33
2019-04-14T08:56:46.945Z,42.90
2019-04-14T08:59:33.242Z,43.40
2019-04-14T09:02:06.525Z,43.38
2019-04-14T09:04:36.690Z,43.63
2019-04-14T09:07:12.889Z,40.43
2019-04-14T09:09:49.170Z,42.48
2019-04-14T09:12:25.171Z,42.13
2019-04-14T09:14:57.169Z,43.63
2019-04-14T09:17:24.227Z,43.08
2019-04-14T09:19:52.758Z,42.70
2019-04-14T09:22:21.230Z,39.73
2019-04-14T09:24:49.737Z,41.08
2019-04-14T09:27:18.290Z,40.63
2019-04-14T09:29:46.934Z,39.42
2019-04-14T09:32:15.510Z,40.78
2019-04-14T09:34:43.980Z,40.15
2019-04-14T09:37:12.542Z,40.28
2019-04-14T09:39:41.005Z,40.95
2019-04-14T09:42:09.674Z,40.50
2019-04-14T09:44:38.225Z,40.15
2019-04-14T09:47:06.745Z,38.67
2019-04-14T09:49:35.374Z,38.40
2019-04-14T09:52:04.038Z,38.15
2019-04-14T09:54:32.540Z,37.95
2019-04-14T09:57:01.125Z,39.98
2019-04-14T09:59:29.712Z,38.15
2019-04-14T10:01:58.399Z,40.10
2019-04-14T10:04:27.012Z,40.48
2019-04-14T10:06:55.579Z,38.88
2019-04-14T10:09:24.164Z,38.70
2019-04-14T10:11:56.185Z,39.88
2019-04-14T10:14:23.074Z,38.13
2019-04-14T10:16:51.580Z,39.90
2019-04-14T10:19:20.051Z,37.85
2019-04-14T10:21:48.537Z,36.20
2019-04-14T10:24:17.072Z,37.33
2019-04-14T10:26:45.646Z,38.45
2019-04-14T10:29:14.139Z,37.70
2019-04-14T10:31:42.673Z,38.28
2019-04-14T10:34:11.151Z,39.00
2019-04-14T10:36:39.691Z,38.25
2019-04-14T10:39:08.175Z,35.95
2019-04-14T10:41:44.291Z,40.95
2019-04-14T10:44:12.833Z,37.03
2019-04-14T10:46:41.292Z,36.30
2019-04-14T10:49:09.844Z,35.63
2019-04-14T10:51:38.342Z,35.50
2019-04-14T10:54:06.933Z,35.73
2019-04-14T10:56:35.395Z,34.83
2019-04-14T10:59:03.839Z,34.03
2019-04-14T11:01:32.323Z,35.95
2019-04-14T11:04:00.898Z,33.83
2019-04-14T11:06:49.373Z,33.40
2019-04-14T11:09:17.993Z,35.50
2019-04-14T11:11:46.509Z,33.88
2019-04-14T11:14:15.033Z,33.10
2019-04-14T11:16:43.626Z,31.23
2019-04-14T11:19:12.165Z,33.63
2019-04-14T11:21:42.744Z,34.80
2019-04-14T11:24:10.857Z,32.98
2019-04-14T11:26:39.466Z,33.85
2019-04-14T11:29:07.966Z,32.35
2019-04-14T11:31:46.735Z,29.02
2019-04-14T11:34:16.844Z,31.10
2019-04-14T11:36:49.689Z,31.93
2019-04-14T11:39:21.988Z,31.65
2019-04-14T11:41:50.657Z,32.30
2019-04-14T11:44:19.307Z,33.67
2019-04-14T11:46:47.789Z,36.25
2019-04-14T11:49:16.302Z,37.20
2019-04-14T11:51:54.790Z,33.98
2019-04-14T11:54:15.311Z,31.47
2019-04-14T11:56:43.844Z,35.98
2019-04-14T11:59:12.336Z,33.65
2019-04-14T12:02:00.619Z,33.70
2019-04-14T12:04:30.735Z,33.95
2019-04-14T12:07:15.943Z,34.48
2019-04-14T12:09:48.791Z,33.78
2019-04-14T12:12:17.269Z,30.70
2019-04-14T12:14:45.725Z,30.02
2019-04-14T12:17:14.208Z,27.52
2019-04-14T12:19:42.771Z,33.90
2019-04-14T12:22:11.281Z,33.58
2019-04-14T12:24:39.753Z,28.25
2019-04-14T12:27:08.339Z,33.42
2019-04-14T12:29:36.941Z,33.35
2019-04-14T12:32:06.966Z,31.68
2019-04-14T12:34:35.455Z,34.50
2019-04-14T12:37:04.106Z,33.75
2019-04-14T12:39:32.714Z,32.95
2019-04-14T12:42:02.947Z,29.07
2019-04-14T12:44:35.830Z,32.95
2019-04-14T12:47:21.094Z,33.15
2019-04-14T12:49:51.265Z,28.90
2019-04-14T12:52:22.154Z,30.70
2019-04-14T12:54:50.916Z,30.48
2019-04-14T12:57:39.487Z,29.82
2019-04-14T13:00:10.022Z,28.57
2019-04-14T13:02:40.320Z,24.55
2019-04-14T13:05:09.336Z,31.00
2019-04-14T13:07:38.173Z,27.65
2019-04-14T13:10:07.845Z,30.20
2019-04-14T13:12:36.358Z,29.37
2019-04-14T13:15:06.867Z,28.07
2019-04-14T13:17:35.682Z,21.55
2019-04-14T13:20:07.629Z,30.35
2019-04-14T13:22:36.217Z,29.02
2019-04-14T13:25:05.356Z,27.93
2019-04-14T13:27:33.888Z,26.48
2019-04-14T13:30:02.451Z,26.57
2019-04-14T13:32:36.234Z,28.70
2019-04-14T13:35:01.254Z,29.57
2019-04-14T13:37:29.773Z,27.93
2019-04-14T13:39:58.233Z,28.87
2019-04-14T13:42:26.775Z,27.35
2019-04-14T13:44:55.434Z,27.50
2019-04-14T13:47:23.892Z,27.02
2019-04-14T13:49:52.371Z,27.77
2019-04-14T13:52:20.809Z,26.02
2019-04-14T13:54:49.565Z,26.37
2019-04-14T13:57:18.203Z,25.37
2019-04-14T13:59:46.890Z,26.65
2019-04-14T14:02:15.341Z,24.87
2019-04-14T14:04:44.107Z,25.72
2019-04-14T14:07:12.707Z,23.22
2019-04-14T14:09:41.186Z,24.05
2019-04-14T14:12:14.218Z,23.80
2019-04-14T14:14:44.405Z,23.45
2019-04-14T14:17:14.532Z,21.95
2019-04-14T14:19:45.160Z,21.52
2019-04-14T14:22:15.646Z,21.20
2019-04-14T14:24:48.587Z,19.80
2019-04-14T14:27:17.128Z,19.87
2019-04-14T14:29:45.604Z,21.95
2019-04-14T14:32:15.928Z,20.80
2019-04-14T14:34:44.458Z,21.17
2019-04-14T14:37:12.988Z,20.45
2019-04-14T14:39:41.427Z,19.77
2019-04-14T14:42:10.116Z,19.07
2019-04-14T14:44:40.373Z,18.30
2019-04-14T14:47:10.570Z,18.67
2019-04-14T14:49:57.024Z,19.40
2019-04-14T14:52:25.678Z,19.60
2019-04-14T14:54:54.205Z,18.48
2019-04-14T14:57:22.674Z,17.67
2019-04-14T14:59:51.195Z,18.00
2019-04-14T15:02:19.830Z,18.00
2019-04-14T15:04:48.298Z,17.25
2019-04-14T15:07:16.852Z,17.07
2019-04-14T15:09:45.297Z,17.37
2019-04-14T15:12:13.846Z,16.85
2019-04-14T15:14:42.290Z,19.52
2019-04-14T15:17:10.845Z,18.27
2019-04-14T15:19:39.311Z,16.77
2019-04-14T15:22:07.979Z,18.00
2019-04-14T15:24:36.588Z,17.27
2019-04-14T15:27:05.192Z,25.88
2019-04-14T15:29:33.638Z,18.00
2019-04-14T15:32:02.151Z,17.42
2019-04-14T15:34:30.712Z,14.90
2019-04-14T15:36:59.217Z,20.12
2019-04-14T15:39:27.738Z,18.45
2019-04-14T15:41:56.912Z,19.37
2019-04-14T15:44:25.673Z,15.83
2019-04-14T15:46:54.192Z,15.60
2019-04-14T15:49:22.990Z,16.82
2019-04-14T15:51:51.588Z,15.50
2019-04-14T15:54:20.066Z,15.45
2019-04-14T15:56:55.938Z,15.43
2019-04-14T15:59:42.703Z,14.65
2019-04-14T16:02:24.823Z,15.13
2019-04-14T16:04:54.928Z,16.07
2019-04-14T16:07:25.057Z,15.48
2019-04-14T16:10:11.668Z,15.75
2019-04-14T16:12:47.648Z,15.58
2019-04-14T16:15:32.602Z,16.75
2019-04-14T16:18:11.808Z,17.55
2019-04-14T16:20:41.970Z,15.80
2019-04-14T16:23:10.452Z,15.30
2019-04-14T16:25:52.625Z,15.43
2019-04-14T16:28:22.948Z,15.65
2019-04-14T16:31:09.370Z,15.57
2019-04-14T16:33:55.796Z,15.53
2019-04-14T16:36:24.361Z,15.45
2019-04-14T16:38:52.897Z,15.43
2019-04-14T16:41:21.396Z,14.55
2019-04-14T16:43:49.892Z,15.03
2019-04-14T16:46:18.389Z,14.58
2019-04-14T16:48:46.879Z,15.08
2019-04-14T16:51:17.132Z,14.20
2019-04-14T16:53:47.325Z,14.97
2019-04-14T16:56:23.187Z,14.28
2019-04-14T16:58:53.386Z,15.08
2019-04-14T17:01:23.859Z,15.10
2019-04-14T17:03:52.369Z,15.48
2019-04-14T17:06:20.921Z,16.35
2019-04-14T17:08:49.454Z,15.58
2019-04-14T17:11:18.020Z,14.68
2019-04-14T17:13:48.103Z,16.37
2019-04-14T17:16:20.783Z,17.07
2019-04-14T17:18:53.661Z,14.83
2019-04-14T17:21:34.515Z,15.05
2019-04-14T17:24:15.986Z,15.30
2019-04-14T17:26:41.580Z,16.62
2019-04-14T17:29:21.274Z,15.68
2019-04-14T17:31:51.650Z,15.53
2019-04-14T17:34:21.838Z,12.07
2019-04-14T17:36:52.009Z,15.78
2019-04-14T17:39:24.772Z,15.18
2019-04-14T17:42:07.377Z,14.55
2019-04-14T17:44:43.184Z,15.85
2019-04-14T17:47:19.129Z,13.88
2019-04-14T17:49:58.562Z,14.58
2019-04-14T17:52:28.804Z,15.48
2019-04-14T17:55:05.076Z,14.47
2019-04-14T17:57:35.602Z,14.43
2019-04-14T18:00:26.831Z,15.00
2019-04-14T18:02:56.999Z,17.20
2019-04-14T18:05:42.075Z,15.70
2019-04-14T18:08:12.422Z,15.13
2019-04-14T18:10:51.791Z,16.10
2019-04-14T18:13:24.666Z,16.97
2019-04-14T18:15:55.427Z,16.10
2019-04-14T18:18:31.960Z,16.95
2019-04-14T18:21:02.206Z,17.50
2019-04-14T18:23:30.783Z,18.20
2019-04-14T18:25:59.265Z,19.07
2019-04-14T18:28:46.162Z,17.80
2019-04-14T18:31:16.394Z,21.33
2019-04-14T18:33:49.106Z,18.52
2019-04-14T18:36:31.096Z,18.32
2019-04-14T18:39:17.807Z,18.55
2019-04-14T18:42:04.457Z,18.42
2019-04-14T18:44:34.665Z,20.75
2019-04-14T18:47:20.386Z,18.30
2019-04-14T18:49:50.838Z,19.15
2019-04-14T18:52:29.734Z,15.83
2019-04-14T18:55:02.842Z,39.40
2019-04-14T18:57:49.566Z,19.35
2019-04-14T19:00:22.957Z,20.32
2019-04-14T19:02:51.752Z,19.52
2019-04-14T19:05:21.241Z,18.52
2019-04-14T19:07:50.061Z,20.17
2019-04-14T19:10:18.965Z,18.62
2019-04-14T19:12:55.756Z,18.30
2019-04-14T19:15:29.073Z,18.60
2019-04-14T19:18:05.371Z,18.65
2019-04-14T19:20:34.530Z,18.40
2019-04-14T19:23:03.369Z,19.35
2019-04-14T19:25:31.945Z,18.85
2019-04-14T19:28:00.500Z,20.48
2019-04-14T19:30:29.111Z,19.45
2019-04-14T19:32:57.698Z,16.00
2019-04-14T19:35:26.968Z,15.93
2019-04-14T19:37:55.727Z,17.07
2019-04-14T19:40:24.466Z,16.45
2019-04-14T19:42:53.613Z,21.82
2019-04-14T19:45:22.295Z,17.10
2019-04-14T19:47:50.823Z,17.15
2019-04-14T19:50:19.537Z,16.30
2019-04-14T19:52:48.025Z,15.90
2019-04-14T19:55:20.634Z,14.93
2019-04-14T19:57:46.991Z,16.53
2019-04-14T20:00:15.983Z,14.80
2019-04-14T20:02:44.644Z,15.20
2019-04-14T20:05:13.283Z,15.30
2019-04-14T20:07:41.892Z,14.83
2019-04-14T20:10:11.688Z,14.35
2019-04-14T20:12:40.313Z,15.23
2019-04-14T20:15:10.655Z,14.63
2019-04-14T20:17:40.878Z,14.67
2019-04-14T20:20:14.307Z,14.40
2019-04-14T20:22:44.502Z,14.73
2019-04-14T20:25:14.637Z,14.85
2019-04-14T20:27:47.580Z,14.05
2019-04-14T20:30:17.789Z,14.10
2019-04-14T20:32:46.448Z,13.55
2019-04-14T20:35:15.440Z,14.55
2019-04-14T20:37:44.013Z,14.58
2019-04-14T20:40:12.913Z,14.98
2019-04-14T20:42:41.530Z,14.13
2019-04-14T20:45:11.999Z,14.30
2019-04-14T20:47:40.690Z,13.83
2019-04-14T20:50:09.478Z,14.40
2019-04-14T20:52:38.033Z,12.73
2019-04-14T20:55:08.264Z,14.25
2019-04-14T20:57:37.097Z,13.95
2019-04-14T21:00:07.004Z,13.00
2019-04-14T21:02:53.745Z,14.07
2019-04-14T21:05:38.983Z,13.68
2019-04-14T21:08:15.002Z,13.05
2019-04-14T21:10:57.385Z,16.12
2019-04-14T21:13:33.422Z,12.58
2019-04-14T21:16:19.008Z,14.13
2019-04-14T21:18:49.120Z,14.05
2019-04-14T21:21:22.348Z,11.93
2019-04-14T21:23:58.165Z,11.97
2019-04-14T21:26:28.397Z,14.80
2019-04-14T21:28:58.609Z,13.98
2019-04-14T21:31:31.408Z,13.22
2019-04-14T21:34:19.866Z,12.95
2019-04-14T21:36:52.909Z,15.28
2019-04-14T21:39:40.515Z,13.48
2019-04-14T21:42:08.518Z,13.53
2019-04-14T21:44:37.036Z,15.32
2019-04-14T21:47:05.893Z,11.50
2019-04-14T21:49:34.421Z,11.88
2019-04-14T21:52:04.503Z,11.08
2019-04-14T21:54:33.078Z,10.85
2019-04-14T21:57:15.316Z,9.53
2019-04-14T22:00:01.879Z,9.90
2019-04-14T22:02:37.694Z,9.95
2019-04-14T22:05:08.568Z,9.88
2019-04-14T22:07:41.454Z,10.25
2019-04-14T22:10:15.412Z,9.93
2019-04-14T22:12:43.914Z,9.73
2019-04-14T22:15:14.180Z,9.20
2019-04-14T22:17:42.742Z,9.80
2019-04-14T22:20:11.354Z,10.18
2019-04-14T22:22:39.810Z,10.58
2019-04-14T22:25:08.721Z,10.10
2019-04-14T22:27:37.397Z,9.80
2019-04-14T22:30:10.733Z,10.20
2019-04-14T22:32:39.339Z,10.25
2019-04-14T22:35:07.930Z,9.83
2019-04-14T22:37:36.547Z,9.38
2019-04-14T22:40:06.429Z,10.10
2019-04-14T22:42:34.952Z,9.53
2019-04-14T22:45:04.516Z,10.68
2019-04-14T22:47:34.018Z,10.32
2019-04-14T22:50:02.528Z,9.78
2019-04-14T22:52:30.994Z,9.65
2019-04-14T22:54:59.422Z,10.38
2019-04-14T22:57:27.884Z,9.53
2019-04-14T22:59:56.381Z,10.60
2019-04-14T23:02:29.347Z,10.35
2019-04-14T23:05:02.632Z,10.20
2019-04-14T23:07:32.781Z,10.00
2019-04-14T23:10:02.971Z,10.40
2019-04-14T23:12:33.195Z,9.93
2019-04-14T23:15:06.514Z,10.03
2019-04-14T23:17:36.774Z,9.80
2019-04-14T23:20:12.920Z,10.38
2019-04-14T23:22:51.992Z,10.05
2019-04-14T23:25:20.724Z,10.40
2019-04-14T23:27:49.244Z,10.65
2019-04-14T23:30:17.818Z,11.33
2019-04-14T23:32:46.435Z,10.80
2019-04-14T23:35:14.939Z,11.08
2019-04-14T23:37:43.411Z,10.55
2019-04-14T23:40:13.526Z,10.95
2019-04-14T23:42:42.089Z,11.28
2019-04-14T23:45:10.679Z,11.12
2019-04-14T23:47:39.304Z,10.90
2019-04-14T23:50:08.384Z,10.90
2019-04-14T23:52:36.881Z,11.43
2019-04-14T23:55:07.006Z,11.28
2019-04-14T23:57:35.482Z,10.70
